createdAt,value
2018-05-29T00:00:58.580Z,17.96
2018-05-29T00:01:58.577Z,17.92
2018-05-29T00:02:58.575Z,17.95
2018-05-29T00:03:58.831Z,17.98
2018-05-29T00:04:59.087Z,18.01
2018-05-29T00:05:59.080Z,17.94
2018-05-29T00:06:59.080Z,18.08
2018-05-29T00:07:59.079Z,18.01
2018-05-29T00:08:59.074Z,17.98
2018-05-29T00:09:58.814Z,17.99
2018-05-29T00:10:59.072Z,18.01
2018-05-29T00:11:58.808Z,18.05
2018-05-29T00:12:59.080Z,18.01
2018-05-29T00:13:58.821Z,18.03
2018-05-29T00:14:58.803Z,17.98
2018-05-29T00:15:58.804Z,18.06
2018-05-29T00:16:58.795Z,18.06
2018-05-29T00:17:58.788Z,18.11
2018-05-29T00:18:58.797Z,18.06
2018-05-29T00:19:58.787Z,18.03
2018-05-29T00:20:58.523Z,18.16
2018-05-29T00:21:59.022Z,18.02
2018-05-29T00:22:58.515Z,18.08
2018-05-29T00:23:59.042Z,17.99
2018-05-29T00:24:59.030Z,18.05
2018-05-29T00:25:59.025Z,17.99
2018-05-29T00:26:58.766Z,18.05
2018-05-29T00:27:58.762Z,18.03
2018-05-29T00:28:59.021Z,18.05
2018-05-29T00:29:58.758Z,18.1
2018-05-29T00:30:58.754Z,18.06
2018-05-29T00:31:58.746Z,18.02
2018-05-29T00:32:59.006Z,18.05
2018-05-29T00:33:58.777Z,18.06
2018-05-29T00:34:58.997Z,17.98
2018-05-29T00:35:58.480Z,18.01
2018-05-29T00:36:59.001Z,17.95
2018-05-29T00:37:58.995Z,17.96
2018-05-29T00:38:58.737Z,17.88
2018-05-29T00:39:58.732Z,17.9
2018-05-29T00:40:58.723Z,17.92
2018-05-29T00:41:58.728Z,17.87
2018-05-29T00:42:58.716Z,17.88
2018-05-29T00:43:58.455Z,17.94
2018-05-29T00:44:58.715Z,17.95
2018-05-29T00:45:58.965Z,17.96
2018-05-29T00:46:58.977Z,18.05
2018-05-29T00:47:58.964Z,18.01
2018-05-29T00:48:58.968Z,18.11
2018-05-29T00:49:58.984Z,18.01
2018-05-29T00:50:58.438Z,18.02
2018-05-29T00:51:58.954Z,18.02
2018-05-29T00:52:59.167Z,17.87
2018-05-29T00:53:58.689Z,17.9
2018-05-29T00:54:58.683Z,18.01
2018-05-29T00:55:58.750Z,17.99
2018-05-29T00:56:58.933Z,17.94
2018-05-29T00:57:58.417Z,17.92
2018-05-29T00:58:58.933Z,17.87
2018-05-29T00:59:58.942Z,17.9
2018-05-29T01:00:58.673Z,17.86
2018-05-29T01:01:58.925Z,17.86
2018-05-29T01:02:58.662Z,17.81
2018-05-29T01:03:58.655Z,17.81
2018-05-29T01:04:58.654Z,17.88
2018-05-29T01:05:58.910Z,17.87
2018-05-29T01:06:58.907Z,17.87
2018-05-29T01:07:58.649Z,17.86
2018-05-29T01:08:58.389Z,17.84
2018-05-29T01:09:58.646Z,17.9
2018-05-29T01:10:58.638Z,17.9
2018-05-29T01:11:58.637Z,17.86
2018-05-29T01:12:58.634Z,17.95
2018-05-29T01:13:58.631Z,17.94
2018-05-29T01:14:58.900Z,18.01
2018-05-29T01:15:58.882Z,18.08
2018-05-29T01:16:58.879Z,18.08
2018-05-29T01:17:58.361Z,18.1
2018-05-29T01:18:58.613Z,18.06
2018-05-29T01:19:58.874Z,18.06
2018-05-29T01:20:58.871Z,18.06
2018-05-29T01:21:58.367Z,18.05
2018-05-29T01:22:58.875Z,18.03
2018-05-29T01:23:58.604Z,18.02
2018-05-29T01:24:58.601Z,18.11
2018-05-29T01:25:58.853Z,18.05
2018-05-29T01:26:58.592Z,17.98
2018-05-29T01:27:58.588Z,17.96
2018-05-29T01:28:58.586Z,17.98
2018-05-29T01:29:58.842Z,17.96
2018-05-29T01:30:58.845Z,17.96
2018-05-29T01:31:58.835Z,17.98
2018-05-29T01:32:58.832Z,17.96
2018-05-29T01:33:58.831Z,17.99
2018-05-29T01:34:58.311Z,17.87
2018-05-29T01:35:58.575Z,17.87
2018-05-29T01:36:58.820Z,17.9
2018-05-29T01:37:58.569Z,17.94
2018-05-29T01:38:58.558Z,17.87
2018-05-29T01:39:58.556Z,17.86
2018-05-29T01:40:58.294Z,18.02
2018-05-29T01:41:58.288Z,18.06
2018-05-29T01:42:58.807Z,18.06
2018-05-29T01:43:58.802Z,18.01
2018-05-29T01:44:58.540Z,17.99
2018-05-29T01:45:58.808Z,18.02
2018-05-29T01:46:58.798Z,18.1
2018-05-29T01:47:58.789Z,17.99
2018-05-29T01:48:58.787Z,18.06
2018-05-29T01:49:58.526Z,18.01
2018-05-29T01:50:58.537Z,17.94
2018-05-29T01:51:58.518Z,17.98
2018-05-29T01:52:58.256Z,17.92
2018-05-29T01:53:58.521Z,17.92
2018-05-29T01:54:58.511Z,17.81
2018-05-29T01:55:58.765Z,17.9
2018-05-29T01:56:58.762Z,17.88
2018-05-29T01:57:58.769Z,17.84
2018-05-29T01:58:58.757Z,17.84
2018-05-29T01:59:58.506Z,17.92
2018-05-29T02:00:58.978Z,17.88
2018-05-29T02:01:58.491Z,17.86
2018-05-29T02:02:58.747Z,17.81
2018-05-29T02:03:58.742Z,17.84
2018-05-29T02:04:58.223Z,17.88
2018-05-29T02:05:58.477Z,17.84
2018-05-29T02:06:58.474Z,17.8
2018-05-29T02:07:58.472Z,17.73
2018-05-29T02:08:58.729Z,17.71
2018-05-29T02:09:58.473Z,17.73
2018-05-29T02:10:58.724Z,17.66
2018-05-29T02:11:58.460Z,17.57
2018-05-29T02:12:58.458Z,17.5
2018-05-29T02:13:58.715Z,17.63
2018-05-29T02:14:58.450Z,17.54
2018-05-29T02:15:58.712Z,17.55
2018-05-29T02:16:58.451Z,17.55
2018-05-29T02:17:58.447Z,17.58
2018-05-29T02:18:58.715Z,17.63
2018-05-29T02:19:58.178Z,17.6
2018-05-29T02:20:58.691Z,17.57
2018-05-29T02:21:58.433Z,17.49
2018-05-29T02:22:58.692Z,17.52
2018-05-29T02:23:58.690Z,17.58
2018-05-29T02:24:58.162Z,17.57
2018-05-29T02:25:58.881Z,17.54
2018-05-29T02:26:58.414Z,17.45
2018-05-29T02:27:58.670Z,17.49
2018-05-29T02:28:58.404Z,17.49
2018-05-29T02:29:58.145Z,17.49
2018-05-29T02:30:58.666Z,17.42
2018-05-29T02:31:58.400Z,17.47
2018-05-29T02:32:58.667Z,17.57
2018-05-29T02:33:58.649Z,17.5
2018-05-29T02:34:58.646Z,17.5
2018-05-29T02:35:58.678Z,17.57
2018-05-29T02:36:58.384Z,17.55
2018-05-29T02:37:58.635Z,17.49
2018-05-29T02:38:58.637Z,17.46
2018-05-29T02:39:58.642Z,17.6
2018-05-29T02:40:58.372Z,17.49
2018-05-29T02:41:58.644Z,17.58
2018-05-29T02:42:58.622Z,17.57
2018-05-29T02:43:58.641Z,17.58
2018-05-29T02:44:58.097Z,17.58
2018-05-29T02:45:58.630Z,17.55
2018-05-29T02:46:58.609Z,17.54
2018-05-29T02:47:58.347Z,17.6
2018-05-29T02:48:58.602Z,17.55
2018-05-29T02:49:58.341Z,17.47
2018-05-29T02:50:58.595Z,17.45
2018-05-29T02:51:58.594Z,17.49
2018-05-29T02:52:58.338Z,17.47
2018-05-29T02:53:58.345Z,17.55
2018-05-29T02:54:58.331Z,17.54
2018-05-29T02:55:58.140Z,17.52
2018-05-29T02:56:58.316Z,17.46
2018-05-29T02:57:58.335Z,17.54
2018-05-29T02:58:58.310Z,17.46
2018-05-29T02:59:58.587Z,17.45
2018-05-29T03:00:58.573Z,17.31
2018-05-29T03:01:58.560Z,17.43
2018-05-29T03:02:58.298Z,17.4
2018-05-29T03:03:58.618Z,17.31
2018-05-29T03:04:58.549Z,17.3
2018-05-29T03:05:58.287Z,17.39
2018-05-29T03:06:58.292Z,17.4
2018-05-29T03:07:58.330Z,17.43
2018-05-29T03:08:58.539Z,17.4
2018-05-29T03:09:58.019Z,17.31
2018-05-29T03:10:58.532Z,17.31
2018-05-29T03:11:58.268Z,17.27
2018-05-29T03:12:58.273Z,17.2
2018-05-29T03:13:58.525Z,17.24
2018-05-29T03:14:58.520Z,17.31
2018-05-29T03:15:58.511Z,17.3
2018-05-29T03:16:58.532Z,17.28
2018-05-29T03:17:58.248Z,17.3
2018-05-29T03:18:58.267Z,17.25
2018-05-29T03:19:58.502Z,17.27
2018-05-29T03:20:58.289Z,17.3
2018-05-29T03:21:58.242Z,17.22
2018-05-29T03:22:58.235Z,17.36
2018-05-29T03:23:58.491Z,17.32
2018-05-29T03:24:58.484Z,17.32
2018-05-29T03:25:58.501Z,17.39
2018-05-29T03:26:58.475Z,17.38
2018-05-29T03:27:58.473Z,17.4
2018-05-29T03:28:58.478Z,17.32
2018-05-29T03:29:58.212Z,17.35
2018-05-29T03:30:58.466Z,17.25
2018-05-29T03:31:58.472Z,17.36
2018-05-29T03:32:58.351Z,17.35
2018-05-29T03:33:58.476Z,17.4
2018-05-29T03:34:58.468Z,17.35
2018-05-29T03:35:58.189Z,17.35
2018-05-29T03:36:58.203Z,17.46
2018-05-29T03:37:58.193Z,17.57
2018-05-29T03:38:58.181Z,17.62
2018-05-29T03:39:58.178Z,17.6
2018-05-29T03:40:58.447Z,17.58
2018-05-29T03:41:58.434Z,17.54
2018-05-29T03:42:58.166Z,17.66
2018-05-29T03:43:58.169Z,17.71
2018-05-29T03:44:58.160Z,17.83
2018-05-29T03:45:58.158Z,17.88
2018-05-29T03:46:58.414Z,17.94
2018-05-29T03:47:58.410Z,17.94
2018-05-29T03:48:58.366Z,17.94
2018-05-29T03:49:58.149Z,17.95
2018-05-29T03:50:57.898Z,17.96
2018-05-29T03:51:58.398Z,17.96
2018-05-29T03:52:58.390Z,18.02
2018-05-29T03:53:58.151Z,17.95
2018-05-29T03:54:58.388Z,18.06
2018-05-29T03:55:58.387Z,18.02
2018-05-29T03:56:58.387Z,18.05
2018-05-29T03:57:58.384Z,18.06
2018-05-29T03:58:57.861Z,18.06
2018-05-29T03:59:58.378Z,18.11
2018-05-29T04:00:58.110Z,18.06
2018-05-29T04:01:58.108Z,18.17
2018-05-29T04:02:58.107Z,18.14
2018-05-29T04:03:58.366Z,18.19
2018-05-29T04:04:58.356Z,18.2
2018-05-29T04:05:58.355Z,18.16
2018-05-29T04:06:58.349Z,18.17
2018-05-29T04:07:58.349Z,18.23
2018-05-29T04:08:58.090Z,18.24
2018-05-29T04:09:58.146Z,18.31
2018-05-29T04:10:58.340Z,18.24
2018-05-29T04:11:57.823Z,18.24
2018-05-29T04:12:58.076Z,18.36
2018-05-29T04:13:58.077Z,18.34
2018-05-29T04:14:58.074Z,18.26
2018-05-29T04:15:58.406Z,18.29
2018-05-29T04:16:58.417Z,18.31
2018-05-29T04:17:58.322Z,18.31
2018-05-29T04:18:58.326Z,18.39
2018-05-29T04:19:58.053Z,18.32
2018-05-29T04:20:58.311Z,18.35
2018-05-29T04:21:57.792Z,18.31
2018-05-29T04:22:57.792Z,18.32
2018-05-29T04:23:58.303Z,18.36
2018-05-29T04:24:58.055Z,18.35
2018-05-29T04:25:58.301Z,18.32
2018-05-29T04:26:58.042Z,18.32
2018-05-29T04:27:58.291Z,18.39
2018-05-29T04:28:58.030Z,18.36
2018-05-29T04:29:58.289Z,18.44
2018-05-29T04:30:58.288Z,18.38
2018-05-29T04:31:58.025Z,18.36
2018-05-29T04:32:58.028Z,18.45
2018-05-29T04:33:58.292Z,18.53
2018-05-29T04:34:58.276Z,18.49
2018-05-29T04:35:58.011Z,18.53
2018-05-29T04:36:58.269Z,18.57
2018-05-29T04:37:58.004Z,18.69
2018-05-29T04:38:57.751Z,18.72
2018-05-29T04:39:58.262Z,18.76
2018-05-29T04:40:58.258Z,18.76
2018-05-29T04:41:58.256Z,18.89
2018-05-29T04:42:57.995Z,18.93
2018-05-29T04:43:57.997Z,18.94
2018-05-29T04:44:57.989Z,18.94
2018-05-29T04:45:57.988Z,19.06
2018-05-29T04:46:58.068Z,19.12
2018-05-29T04:47:58.246Z,19.17
2018-05-29T04:48:57.982Z,19.23
2018-05-29T04:49:57.994Z,19.23
2018-05-29T04:50:58.244Z,19.27
2018-05-29T04:51:58.234Z,19.28
2018-05-29T04:52:58.250Z,19.28
2018-05-29T04:53:58.468Z,19.32
2018-05-29T04:54:57.705Z,19.4
2018-05-29T04:55:58.223Z,19.4
2018-05-29T04:56:57.961Z,19.5
2018-05-29T04:57:57.961Z,19.46
2018-05-29T04:58:57.955Z,19.46
2018-05-29T04:59:57.954Z,19.47
2018-05-29T05:00:58.224Z,19.47
2018-05-29T05:01:58.213Z,19.47
2018-05-29T05:02:58.206Z,19.53
2018-05-29T05:03:58.211Z,19.56
2018-05-29T05:04:57.944Z,19.64
2018-05-29T05:05:57.940Z,19.64
2018-05-29T05:06:58.223Z,19.71
2018-05-29T05:07:57.681Z,19.64
2018-05-29T05:08:58.334Z,19.67
2018-05-29T05:09:58.193Z,19.82
2018-05-29T05:10:58.197Z,19.79
2018-05-29T05:11:57.940Z,19.87
2018-05-29T05:12:57.937Z,19.86
2018-05-29T05:13:57.944Z,19.92
2018-05-29T05:14:58.186Z,19.92
2018-05-29T05:15:58.183Z,19.95
2018-05-29T05:16:58.181Z,19.98
2018-05-29T05:17:58.177Z,20
2018-05-29T05:18:57.922Z,20
2018-05-29T05:19:57.659Z,20.08
2018-05-29T05:20:58.182Z,20.16
2018-05-29T05:21:57.918Z,20.15
2018-05-29T05:22:58.190Z,20.2
2018-05-29T05:23:58.176Z,20.16
2018-05-29T05:24:57.916Z,20.27
2018-05-29T05:25:58.173Z,20.2
2018-05-29T05:26:57.648Z,20.15
2018-05-29T05:27:58.124Z,20.26
2018-05-29T05:28:57.904Z,20.2
2018-05-29T05:29:58.186Z,20.35
2018-05-29T05:30:58.161Z,20.32
2018-05-29T05:31:58.167Z,20.29
2018-05-29T05:32:58.163Z,20.34
2018-05-29T05:33:57.899Z,20.3
2018-05-29T05:34:57.898Z,20.27
2018-05-29T05:35:58.162Z,20.25
2018-05-29T05:36:58.156Z,20.18
2018-05-29T05:37:58.154Z,20.26
2018-05-29T05:38:58.154Z,20.32
2018-05-29T05:39:58.157Z,20.4
2018-05-29T05:40:57.892Z,20.42
2018-05-29T05:41:58.150Z,20.46
2018-05-29T05:42:57.888Z,20.54
2018-05-29T05:43:57.890Z,20.58
2018-05-29T05:44:57.887Z,20.67
2018-05-29T05:45:58.157Z,20.68
2018-05-29T05:46:58.241Z,20.71
2018-05-29T05:47:58.150Z,20.85
2018-05-29T05:48:57.885Z,20.81
2018-05-29T05:49:58.149Z,20.83
2018-05-29T05:50:57.881Z,20.86
2018-05-29T05:51:58.147Z,20.98
2018-05-29T05:52:57.883Z,20.98
2018-05-29T05:53:58.146Z,21.04
2018-05-29T05:54:57.625Z,21.06
2018-05-29T05:55:58.130Z,21.12
2018-05-29T05:56:57.878Z,21.15
2018-05-29T05:57:57.894Z,21.23
2018-05-29T05:58:58.146Z,21.18
2018-05-29T05:59:58.135Z,21.31
2018-05-29T06:00:58.133Z,21.23
2018-05-29T06:01:57.619Z,21.3
2018-05-29T06:02:58.171Z,21.43
2018-05-29T06:03:58.148Z,21.46
2018-05-29T06:04:57.615Z,21.37
2018-05-29T06:05:57.872Z,21.43
2018-05-29T06:06:58.133Z,21.49
2018-05-29T06:07:58.127Z,21.55
2018-05-29T06:08:58.130Z,21.64
2018-05-29T06:09:58.128Z,21.62
2018-05-29T06:10:57.869Z,21.67
2018-05-29T06:11:57.871Z,21.62
2018-05-29T06:12:58.129Z,21.68
2018-05-29T06:13:57.877Z,21.73
2018-05-29T06:14:58.133Z,21.74
2018-05-29T06:15:57.876Z,21.83
2018-05-29T06:16:58.128Z,21.78
2018-05-29T06:17:58.132Z,21.96
2018-05-29T06:18:57.868Z,21.93
2018-05-29T06:19:57.873Z,22.04
2018-05-29T06:20:57.875Z,21.96
2018-05-29T06:21:58.126Z,22.12
2018-05-29T06:22:57.612Z,22.09
2018-05-29T06:23:58.132Z,22.23
2018-05-29T06:24:58.175Z,22.27
2018-05-29T06:25:58.132Z,22.26
2018-05-29T06:26:58.124Z,22.27
2018-05-29T06:27:58.129Z,22.27
2018-05-29T06:28:58.167Z,22.36
2018-05-29T06:29:57.869Z,22.24
2018-05-29T06:30:57.612Z,22.29
2018-05-29T06:31:58.130Z,22.3
2018-05-29T06:32:58.134Z,22.3
2018-05-29T06:33:58.129Z,22.38
2018-05-29T06:34:57.871Z,22.44
2018-05-29T06:35:58.138Z,22.55
2018-05-29T06:36:58.150Z,22.55
2018-05-29T06:37:58.133Z,22.86
2018-05-29T06:38:57.874Z,23.24
2018-05-29T06:39:57.616Z,23.66
2018-05-29T06:40:57.876Z,24.4
2018-05-29T06:41:58.132Z,25.05
2018-05-29T06:42:58.134Z,25.63
2018-05-29T06:43:58.177Z,26.3
2018-05-29T06:44:58.393Z,26.79
2018-05-29T06:45:57.881Z,27.28
2018-05-29T06:46:58.361Z,27.72
2018-05-29T06:47:57.889Z,28.16
2018-05-29T06:48:58.146Z,28.58
2018-05-29T06:49:57.889Z,28.95
2018-05-29T06:50:58.147Z,29.23
2018-05-29T06:51:58.158Z,29.69
2018-05-29T06:52:58.154Z,30.19
2018-05-29T06:53:57.918Z,30.7
2018-05-29T06:54:58.168Z,31.16
2018-05-29T06:55:57.923Z,31.36
2018-05-29T06:56:58.172Z,31.87
2018-05-29T06:57:57.924Z,32.24
2018-05-29T06:58:57.935Z,32.52
2018-05-29T06:59:57.934Z,32.93
2018-05-29T07:00:57.678Z,33.23
2018-05-29T07:01:57.942Z,33.4
2018-05-29T07:02:57.949Z,33.4
2018-05-29T07:03:58.329Z,33.68
2018-05-29T07:04:58.220Z,33.89
2018-05-29T07:05:57.968Z,34.12
2018-05-29T07:06:58.272Z,34.41
2018-05-29T07:07:58.250Z,34.56
2018-05-29T07:08:58.606Z,34.77
2018-05-29T07:09:58.011Z,34.91
2018-05-29T07:10:58.262Z,35.06
2018-05-29T07:11:58.047Z,35.15
2018-05-29T07:12:58.281Z,35.04
2018-05-29T07:13:58.032Z,35.2
2018-05-29T07:14:58.294Z,35.35
2018-05-29T07:15:58.048Z,35.35
2018-05-29T07:16:58.318Z,35.3
2018-05-29T07:17:58.065Z,35.33
2018-05-29T07:18:58.329Z,35.55
2018-05-29T07:19:58.388Z,35.67
2018-05-29T07:20:58.087Z,35.76
2018-05-29T07:21:58.352Z,35.94
2018-05-29T07:22:58.367Z,36.06
2018-05-29T07:23:58.113Z,36.3
2018-05-29T07:24:58.123Z,36.25
2018-05-29T07:25:57.876Z,36.33
2018-05-29T07:26:58.404Z,36.44
2018-05-29T07:27:58.410Z,36.47
2018-05-29T07:28:58.419Z,36.39
2018-05-29T07:29:58.172Z,36.4
2018-05-29T07:30:58.454Z,36.49
2018-05-29T07:31:58.204Z,36.53
2018-05-29T07:32:58.458Z,36.74
2018-05-29T07:33:58.212Z,36.74
2018-05-29T07:34:58.484Z,36.73
2018-05-29T07:35:58.231Z,36.77
2018-05-29T07:36:58.507Z,36.88
2018-05-29T07:37:58.512Z,36.92
2018-05-29T07:38:58.322Z,36.9
2018-05-29T07:39:58.278Z,36.88
2018-05-29T07:40:58.546Z,36.75
2018-05-29T07:41:58.571Z,36.49
2018-05-29T07:42:58.564Z,36.47
2018-05-29T07:43:58.060Z,36.56
2018-05-29T07:44:58.588Z,36.68
2018-05-29T07:45:58.601Z,36.62
2018-05-29T07:46:58.348Z,36.73
2018-05-29T07:47:58.621Z,36.7
2018-05-29T07:48:58.632Z,36.63
2018-05-29T07:49:58.644Z,36.61
2018-05-29T07:50:58.655Z,36.52
2018-05-29T07:51:58.820Z,36.53
2018-05-29T07:52:58.681Z,36.59
2018-05-29T07:53:58.430Z,36.56
2018-05-29T07:54:58.442Z,36.55
2018-05-29T07:55:58.193Z,36.53
2018-05-29T07:56:58.730Z,36.59
2018-05-29T07:57:58.473Z,36.47
2018-05-29T07:58:58.225Z,36.58
2018-05-29T07:59:58.761Z,36.8
2018-05-29T08:00:58.762Z,36.9
2018-05-29T08:01:58.255Z,36.9
2018-05-29T08:02:58.783Z,36.73
2018-05-29T08:03:58.792Z,36.75
2018-05-29T08:04:58.544Z,36.7
2018-05-29T08:05:58.555Z,36.47
2018-05-29T08:06:58.303Z,36.19
2018-05-29T08:07:58.835Z,35.83
2018-05-29T08:08:58.841Z,35.49
2018-05-29T08:09:58.591Z,35.21
2018-05-29T08:10:58.350Z,34.74
2018-05-29T08:11:58.875Z,34.37
2018-05-29T08:12:58.890Z,33.9
2018-05-29T08:13:58.907Z,33.31
2018-05-29T08:14:58.380Z,32.81
2018-05-29T08:15:58.647Z,32.45
2018-05-29T08:16:58.916Z,32.16
2018-05-29T08:17:58.866Z,31.81
2018-05-29T08:18:58.674Z,31.43
2018-05-29T08:19:58.935Z,31.12
2018-05-29T08:20:58.946Z,30.82
2018-05-29T08:21:58.968Z,30.56
2018-05-29T08:22:58.967Z,30.26
2018-05-29T08:23:58.718Z,30
2018-05-29T08:24:58.989Z,29.88
2018-05-29T08:25:58.729Z,29.73
2018-05-29T08:26:58.998Z,29.63
2018-05-29T08:27:58.745Z,29.6
2018-05-29T08:28:59.006Z,29.57
2018-05-29T08:29:59.011Z,29.5
2018-05-29T08:30:59.062Z,29.48
2018-05-29T08:31:59.049Z,29.43
2018-05-29T08:32:59.034Z,29.5
2018-05-29T08:33:58.529Z,29.52
2018-05-29T08:34:58.795Z,29.4
2018-05-29T08:35:58.801Z,29.4
2018-05-29T08:36:59.064Z,29.43
2018-05-29T08:37:58.811Z,29.38
2018-05-29T08:38:58.822Z,29.4
2018-05-29T08:39:59.086Z,29.26
2018-05-29T08:40:59.090Z,29.03
2018-05-29T08:41:58.579Z,29.01
2018-05-29T08:42:58.850Z,28.94
2018-05-29T08:43:58.855Z,29.01
2018-05-29T08:44:59.144Z,28.91
2018-05-29T08:45:59.141Z,28.85
2018-05-29T08:46:59.131Z,28.92
2018-05-29T08:47:58.618Z,28.86
2018-05-29T08:48:58.880Z,28.88
2018-05-29T08:49:58.888Z,28.88
2018-05-29T08:50:58.892Z,28.83
2018-05-29T08:51:59.162Z,28.85
2018-05-29T08:52:59.165Z,28.91
2018-05-29T08:53:58.914Z,29.01
2018-05-29T08:54:58.656Z,29.02
2018-05-29T08:55:59.192Z,28.94
2018-05-29T08:56:59.191Z,28.91
2018-05-29T08:57:58.680Z,28.92
2018-05-29T08:58:59.199Z,28.94
2018-05-29T08:59:59.212Z,29.03
2018-05-29T09:00:59.208Z,28.98
2018-05-29T09:01:59.248Z,28.94
2018-05-29T09:02:58.963Z,29.08
2018-05-29T09:03:59.046Z,29.13
2018-05-29T09:04:58.975Z,29.06
2018-05-29T09:05:58.982Z,29.08
2018-05-29T09:06:59.244Z,28.98
2018-05-29T09:07:59.029Z,29.14
2018-05-29T09:08:58.999Z,29.11
2018-05-29T09:09:59.265Z,29.15
2018-05-29T09:10:59.268Z,29.13
2018-05-29T09:11:58.757Z,29.14
2018-05-29T09:12:59.281Z,29.15
2018-05-29T09:13:59.252Z,29.13
2018-05-29T09:14:59.035Z,29.1
2018-05-29T09:15:59.046Z,29.05
2018-05-29T09:16:59.045Z,28.95
2018-05-29T09:17:59.331Z,28.91
2018-05-29T09:18:58.796Z,28.95
2018-05-29T09:19:59.163Z,28.91
2018-05-29T09:20:59.321Z,28.9
2018-05-29T09:21:58.813Z,28.88
2018-05-29T09:22:59.342Z,28.85
2018-05-29T09:23:59.083Z,28.78
2018-05-29T09:24:59.085Z,28.75
2018-05-29T09:25:59.457Z,28.83
2018-05-29T09:26:59.095Z,28.9
2018-05-29T09:27:59.367Z,29.03
2018-05-29T09:28:59.109Z,29.06
2018-05-29T09:29:59.339Z,29.06
2018-05-29T09:30:59.118Z,29.11
2018-05-29T09:31:59.183Z,29.1
2018-05-29T09:32:59.405Z,29.18
2018-05-29T09:33:59.400Z,29.14
2018-05-29T09:34:59.405Z,29.24
2018-05-29T09:35:59.145Z,29.13
2018-05-29T09:36:59.411Z,29.11
2018-05-29T09:37:59.153Z,29.08
2018-05-29T09:38:59.160Z,29.15
2018-05-29T09:39:59.425Z,29.14
2018-05-29T09:40:59.169Z,29.11
2018-05-29T09:41:59.182Z,29.15
2018-05-29T09:42:59.182Z,29.23
2018-05-29T09:43:59.185Z,29.32
2018-05-29T09:44:59.446Z,29.29
2018-05-29T09:45:59.407Z,29.32
2018-05-29T09:46:59.200Z,29.28
2018-05-29T09:47:59.464Z,29.28
2018-05-29T09:48:59.480Z,29.21
2018-05-29T09:49:59.219Z,29.26
2018-05-29T09:50:59.222Z,29.28
2018-05-29T09:51:58.969Z,29.14
2018-05-29T09:52:58.974Z,29.11
2018-05-29T09:53:59.500Z,29.11
2018-05-29T09:54:58.985Z,29.05
2018-05-29T09:55:59.524Z,29.01
2018-05-29T09:56:59.255Z,29.03
2018-05-29T09:57:59.523Z,29.03
2018-05-29T09:58:59.264Z,29.11
2018-05-29T09:59:59.012Z,29.02
2018-05-29T10:00:59.275Z,29.06
2018-05-29T10:01:59.280Z,29.11
2018-05-29T10:02:59.545Z,29.13
2018-05-29T10:03:59.546Z,29.11
2018-05-29T10:04:59.560Z,29.23
2018-05-29T10:05:59.298Z,29.29
2018-05-29T10:06:59.449Z,29.17
2018-05-29T10:07:59.572Z,29.14
2018-05-29T10:08:59.056Z,29.14
2018-05-29T10:09:59.530Z,29.02
2018-05-29T10:10:59.584Z,29.06
2018-05-29T10:11:59.337Z,28.98
2018-05-29T10:12:59.591Z,29.02
2018-05-29T10:13:59.617Z,29.03
2018-05-29T10:14:59.606Z,29.03
2018-05-29T10:15:59.658Z,29.1
2018-05-29T10:16:59.721Z,29.14
2018-05-29T10:17:59.367Z,29.1
2018-05-29T10:18:59.623Z,29.15
2018-05-29T10:19:59.371Z,29.13
2018-05-29T10:20:59.635Z,29.11
2018-05-29T10:21:59.640Z,29.14
2018-05-29T10:22:59.645Z,29.3
2018-05-29T10:23:59.653Z,29.15
2018-05-29T10:24:59.403Z,29.15
2018-05-29T10:25:59.141Z,29.26
2018-05-29T10:26:59.410Z,29.26
2018-05-29T10:27:59.417Z,29.28
2018-05-29T10:28:59.179Z,29.36
2018-05-29T10:29:59.678Z,29.36
2018-05-29T10:30:59.850Z,29.3
2018-05-29T10:31:59.432Z,29.32
2018-05-29T10:32:59.440Z,29.32
2018-05-29T10:33:59.443Z,29.35
2018-05-29T10:34:59.455Z,29.32
2018-05-29T10:35:59.454Z,29.32
2018-05-29T10:36:59.466Z,29.32
2018-05-29T10:37:59.467Z,29.33
2018-05-29T10:38:59.727Z,29.38
2018-05-29T10:39:59.490Z,29.4
2018-05-29T10:40:59.225Z,29.47
2018-05-29T10:41:59.742Z,29.55
2018-05-29T10:42:59.495Z,29.61
2018-05-29T10:43:59.759Z,29.52
2018-05-29T10:44:59.760Z,29.6
2018-05-29T10:45:59.853Z,29.55
2018-05-29T10:46:59.512Z,29.57
2018-05-29T10:47:59.775Z,29.61
2018-05-29T10:48:59.795Z,29.51
2018-05-29T10:49:59.786Z,29.4
2018-05-29T10:50:59.535Z,29.54
2018-05-29T10:51:59.798Z,29.58
2018-05-29T10:52:59.808Z,29.61
2018-05-29T10:53:59.806Z,29.65
2018-05-29T10:54:59.816Z,29.6
2018-05-29T10:55:59.563Z,29.58
2018-05-29T10:56:59.828Z,29.65
2018-05-29T10:57:59.571Z,29.65
2018-05-29T10:58:59.578Z,29.55
2018-05-29T10:59:59.582Z,29.55
2018-05-29T11:00:59.846Z,29.6
2018-05-29T11:01:59.595Z,29.73
2018-05-29T11:03:00.075Z,29.67
2018-05-29T11:03:59.861Z,29.81
2018-05-29T11:04:59.608Z,29.72
2018-05-29T11:05:59.632Z,29.79
2018-05-29T11:06:59.364Z,29.79
2018-05-29T11:07:59.628Z,29.77
2018-05-29T11:08:59.635Z,29.69
2018-05-29T11:09:59.841Z,29.65
2018-05-29T11:10:59.899Z,29.72
2018-05-29T11:11:59.910Z,29.76
2018-05-29T11:12:59.912Z,29.75
2018-05-29T11:13:59.655Z,29.73
2018-05-29T11:14:59.664Z,29.79
2018-05-29T11:15:59.932Z,29.67
2018-05-29T11:17:00.135Z,29.67
2018-05-29T11:17:59.700Z,29.73
2018-05-29T11:18:59.686Z,29.81
2018-05-29T11:19:59.703Z,29.87
2018-05-29T11:20:59.698Z,30.03
2018-05-29T11:21:59.461Z,30.04
2018-05-29T11:22:59.970Z,30.02
2018-05-29T11:23:59.720Z,30.02
2018-05-29T11:24:59.726Z,30.02
2018-05-29T11:25:59.726Z,30.03
2018-05-29T11:26:59.734Z,30.06
2018-05-29T11:27:59.739Z,29.91
2018-05-29T11:28:59.764Z,29.89
2018-05-29T11:30:00.010Z,29.87
2018-05-29T11:30:59.509Z,29.88
2018-05-29T11:31:59.759Z,29.7
2018-05-29T11:32:59.766Z,29.67
2018-05-29T11:33:59.774Z,29.77
2018-05-29T11:35:00.038Z,29.73
2018-05-29T11:35:59.789Z,29.69
2018-05-29T11:36:59.787Z,29.67
2018-05-29T11:37:59.814Z,29.73
2018-05-29T11:38:59.542Z,29.75
2018-05-29T11:40:00.069Z,29.77
2018-05-29T11:41:00.074Z,29.72
2018-05-29T11:42:00.076Z,29.73
2018-05-29T11:42:59.566Z,29.84
2018-05-29T11:44:00.091Z,29.81
2018-05-29T11:44:59.888Z,29.82
2018-05-29T11:45:59.847Z,29.91
2018-05-29T11:46:59.848Z,29.92
2018-05-29T11:48:00.120Z,29.94
2018-05-29T11:49:00.120Z,29.89
2018-05-29T11:50:00.123Z,29.89
2018-05-29T11:50:59.885Z,29.91
2018-05-29T11:52:00.098Z,29.76
2018-05-29T11:52:59.625Z,29.81
2018-05-29T11:53:59.894Z,29.81
2018-05-29T11:55:00.321Z,29.92
2018-05-29T11:55:59.643Z,29.89
2018-05-29T11:56:59.905Z,29.92
2018-05-29T11:57:59.907Z,29.88
2018-05-29T11:58:59.919Z,29.88
2018-05-29T11:59:59.929Z,30.04
2018-05-29T12:00:59.930Z,30.07
2018-05-29T12:02:00.212Z,30.04
2018-05-29T12:02:59.947Z,30.09
2018-05-29T12:04:00.224Z,30.18
2018-05-29T12:04:59.951Z,30.22
2018-05-29T12:06:00.219Z,30.24
2018-05-29T12:06:59.963Z,30.19
2018-05-29T12:08:00.235Z,30.13
2018-05-29T12:09:00.240Z,30.09
2018-05-29T12:09:59.980Z,30.03
2018-05-29T12:10:59.985Z,30.19
2018-05-29T12:11:59.994Z,30.16
2018-05-29T12:13:00.259Z,30.03
2018-05-29T12:14:00.267Z,30.06
2018-05-29T12:15:00.281Z,30
2018-05-29T12:16:00.034Z,29.92
2018-05-29T12:17:00.531Z,29.95
2018-05-29T12:18:00.234Z,29.88
2018-05-29T12:19:00.038Z,30.04
2018-05-29T12:20:00.047Z,29.94
2018-05-29T12:21:00.054Z,29.98
2018-05-29T12:22:00.317Z,29.98
2018-05-29T12:23:00.068Z,29.98
2018-05-29T12:24:00.069Z,29.87
2018-05-29T12:25:00.339Z,29.94
2018-05-29T12:26:00.337Z,29.85
2018-05-29T12:26:59.854Z,29.82
2018-05-29T12:28:00.093Z,29.67
2018-05-29T12:29:00.095Z,29.77
2018-05-29T12:29:59.844Z,29.72
2018-05-29T12:31:00.366Z,29.7
2018-05-29T12:32:00.392Z,29.73
2018-05-29T12:33:00.123Z,29.82
2018-05-29T12:34:00.442Z,29.82
2018-05-29T12:35:00.136Z,29.76
2018-05-29T12:36:00.413Z,29.65
2018-05-29T12:37:00.406Z,29.73
2018-05-29T12:38:00.152Z,29.67
2018-05-29T12:39:00.161Z,29.73
2018-05-29T12:40:00.166Z,29.65
2018-05-29T12:41:00.424Z,29.51
2018-05-29T12:42:00.443Z,29.5
2018-05-29T12:43:00.179Z,29.55
2018-05-29T12:44:00.453Z,29.54
2018-05-29T12:45:00.469Z,29.63
2018-05-29T12:46:00.198Z,29.61
2018-05-29T12:47:00.211Z,29.55
2018-05-29T12:48:00.469Z,29.43
2018-05-29T12:49:00.477Z,29.39
2018-05-29T12:50:00.227Z,29.35
2018-05-29T12:51:00.226Z,29.47
2018-05-29T12:52:00.262Z,29.57
2018-05-29T12:53:00.244Z,29.52
2018-05-29T12:54:00.245Z,29.54
2018-05-29T12:55:00.253Z,29.54
2018-05-29T12:56:00.261Z,29.6